createdAt,value
2022-12-27T00:00:59.196Z,9.13
2022-12-27T00:03:46.438Z,8.67
2022-12-27T00:06:33.458Z,7.37
2022-12-27T00:09:20.636Z,8.27
2022-12-27T00:12:07.963Z,9.77
2022-12-27T00:14:55.011Z,8.13
2022-12-27T00:17:41.954Z,9.77
2022-12-27T00:20:28.958Z,10.63
2022-12-27T00:23:15.899Z,5.97
2022-12-27T00:26:05.903Z,6.53
2022-12-27T00:28:54.524Z,5.97
2022-12-27T00:31:41.510Z,9.30
2022-12-27T00:34:28.512Z,11.43
2022-12-27T00:37:15.450Z,12.77
2022-12-27T00:40:02.425Z,5.13
2022-12-27T00:42:49.340Z,10.73
2022-12-27T00:45:36.302Z,10.60
2022-12-27T00:48:24.250Z,11.97
2022-12-27T00:51:14.361Z,10.27
2022-12-27T00:54:01.868Z,7.20
2022-12-27T00:56:48.849Z,7.97
2022-12-27T00:59:35.906Z,9.33
2022-12-27T01:02:22.871Z,5.97
2022-12-27T01:05:10.273Z,4.40
2022-12-27T01:07:57.209Z,7.00
2022-12-27T01:10:44.165Z,9.30
2022-12-27T01:13:31.831Z,9.70
2022-12-27T01:16:21.952Z,7.00
2022-12-27T01:19:08.974Z,8.90
2022-12-27T01:21:55.913Z,9.30
2022-12-27T01:24:42.842Z,7.23
2022-12-27T01:27:29.745Z,7.33
2022-12-27T01:30:16.688Z,10.20
2022-12-27T01:33:03.733Z,9.57
2022-12-27T01:35:50.696Z,9.37
2022-12-27T01:38:37.687Z,8.00
2022-12-27T01:41:52.585Z,7.30
2022-12-27T01:44:39.780Z,7.63
2022-12-27T01:47:31.681Z,14.23
2022-12-27T01:50:24.372Z,6.67
2022-12-27T01:53:17.386Z,11.43
2022-12-27T01:56:09.512Z,4.10
2022-12-27T01:59:09.614Z,8.30
2022-12-27T02:01:57.099Z,10.40
2022-12-27T02:04:44.813Z,8.10
2022-12-27T02:07:59.159Z,7.40
2022-12-27T02:10:46.852Z,7.03
2022-12-27T02:13:37.877Z,8.23
2022-12-27T02:16:24.853Z,9.67
2022-12-27T02:19:33.432Z,7.30
2022-12-27T02:23:12.986Z,6.73
2022-12-27T02:26:11.908Z,7.83
2022-12-27T02:29:26.426Z,6.50
2022-12-27T02:32:48.660Z,9.00
2022-12-27T02:35:50.518Z,7.67
2022-12-27T02:38:42.502Z,7.60
2022-12-27T02:41:52.691Z,7.40
2022-12-27T02:44:58.368Z,7.13
2022-12-27T02:48:07.812Z,6.13
2022-12-27T02:51:22.179Z,5.93
2022-12-27T02:54:27.570Z,5.23
2022-12-27T02:57:33.890Z,9.10
2022-12-27T03:00:42.510Z,7.37
2022-12-27T03:03:50.621Z,6.60
2022-12-27T03:06:54.601Z,7.97
2022-12-27T03:10:07.949Z,12.87
2022-12-27T03:13:50.855Z,4.67
2022-12-27T03:16:55.794Z,4.47
2022-12-27T03:20:13.937Z,8.23
2022-12-27T03:23:22.488Z,6.47
2022-12-27T03:26:10.678Z,4.10
2022-12-27T03:29:17.200Z,7.63
2022-12-27T03:32:27.843Z,8.30
2022-12-27T03:35:20.817Z,7.27
2022-12-27T03:38:12.448Z,8.77
2022-12-27T03:41:41.293Z,7.57
2022-12-27T03:44:28.399Z,9.97
2022-12-27T03:48:02.130Z,7.43
2022-12-27T03:51:04.827Z,5.97
2022-12-27T03:53:56.711Z,6.07
2022-12-27T03:56:43.871Z,7.57
2022-12-27T03:59:31.058Z,4.73
2022-12-27T04:02:18.454Z,6.13
2022-12-27T04:05:06.003Z,6.57
2022-12-27T04:08:11.497Z,17.60
2022-12-27T04:11:17.162Z,7.83
2022-12-27T04:14:22.596Z,9.77
2022-12-27T04:17:28.180Z,6.47
2022-12-27T04:20:34.018Z,7.70
2022-12-27T04:23:39.601Z,9.87
2022-12-27T04:26:45.480Z,9.40
2022-12-27T04:29:50.976Z,5.97
2022-12-27T04:32:56.414Z,9.97
2022-12-27T04:35:43.372Z,6.20
2022-12-27T04:38:30.321Z,6.90
2022-12-27T04:41:35.874Z,10.17
2022-12-27T04:44:41.362Z,12.57
2022-12-27T04:47:47.214Z,6.57
2022-12-27T04:50:52.831Z,10.23
2022-12-27T04:53:58.375Z,7.57
2022-12-27T04:56:45.480Z,5.57
2022-12-27T04:59:51.121Z,7.63
2022-12-27T05:02:38.380Z,6.47
2022-12-27T05:05:25.893Z,9.80
2022-12-27T05:08:33.158Z,7.67
2022-12-27T05:11:38.908Z,13.57
2022-12-27T05:14:25.952Z,9.80
2022-12-27T05:17:13.488Z,10.07
2022-12-27T05:20:00.398Z,7.40
2022-12-27T05:23:05.920Z,13.27
2022-12-27T05:25:52.928Z,9.47
2022-12-27T05:28:39.892Z,8.73
2022-12-27T05:31:28.318Z,8.20
2022-12-27T05:34:15.372Z,9.20
2022-12-27T05:37:02.312Z,7.53
2022-12-27T05:39:49.249Z,7.90
2022-12-27T05:42:36.163Z,8.80
2022-12-27T05:45:23.120Z,10.87
2022-12-27T05:48:10.057Z,8.90
2022-12-27T05:50:57.023Z,11.43
2022-12-27T05:53:44.572Z,10.07
2022-12-27T05:56:31.553Z,10.80
2022-12-27T05:59:18.514Z,9.90
2022-12-27T06:02:05.555Z,8.47
2022-12-27T06:04:52.602Z,9.73
2022-12-27T06:07:39.737Z,7.57
2022-12-27T06:10:26.673Z,9.93
2022-12-27T06:13:13.626Z,9.63
2022-12-27T06:16:02.356Z,5.97
2022-12-27T06:18:49.859Z,10.40
2022-12-27T06:21:36.819Z,6.60
2022-12-27T06:24:23.988Z,5.90
2022-12-27T06:27:10.939Z,6.27
2022-12-27T06:29:58.064Z,7.50
2022-12-27T06:32:45.154Z,6.03
2022-12-27T06:35:32.126Z,4.93
2022-12-27T06:38:19.182Z,5.70
2022-12-27T06:41:08.694Z,4.60
2022-12-27T06:43:58.019Z,4.10
2022-12-27T06:46:44.966Z,6.97
2022-12-27T06:49:31.953Z,4.57
2022-12-27T06:52:18.923Z,3.77
2022-12-27T06:55:06.055Z,6.53
2022-12-27T06:57:52.979Z,4.47
2022-12-27T07:00:40.451Z,5.57
2022-12-27T07:03:27.365Z,4.07
2022-12-27T07:06:14.278Z,3.77
2022-12-27T07:09:01.830Z,5.97
2022-12-27T07:11:48.855Z,5.23
2022-12-27T07:14:35.998Z,6.73
2022-12-27T07:17:22.959Z,4.33
2022-12-27T07:20:10.389Z,6.10
2022-12-27T07:22:58.827Z,4.63
2022-12-27T07:25:45.765Z,8.00
2022-12-27T07:28:33.031Z,6.40
2022-12-27T07:31:23.314Z,9.60
2022-12-27T07:34:10.715Z,6.87
2022-12-27T07:36:57.649Z,4.77
2022-12-27T07:39:44.964Z,4.07
2022-12-27T07:42:31.916Z,5.63
2022-12-27T07:45:18.861Z,5.40
2022-12-27T07:48:06.136Z,12.63
2022-12-27T07:50:56.056Z,4.77
2022-12-27T07:53:43.263Z,4.03
2022-12-27T07:56:30.402Z,4.57
2022-12-27T07:59:17.329Z,5.23
2022-12-27T08:02:04.523Z,4.63
2022-12-27T08:04:51.580Z,8.77
2022-12-27T08:07:39.517Z,4.37
2022-12-27T08:10:26.525Z,3.83
2022-12-27T08:13:13.463Z,4.63
2022-12-27T08:16:00.746Z,6.70
2022-12-27T08:18:48.234Z,3.23
2022-12-27T08:21:35.172Z,3.63
2022-12-27T08:24:22.166Z,6.30
2022-12-27T08:27:09.367Z,7.37
2022-12-27T08:29:56.541Z,5.37
2022-12-27T08:32:43.555Z,11.63
2022-12-27T08:35:52.095Z,8.73
2022-12-27T08:38:37.998Z,4.50
2022-12-27T08:41:24.956Z,6.70
2022-12-27T08:44:12.336Z,5.60
2022-12-27T08:46:59.546Z,8.10
2022-12-27T08:49:46.572Z,5.27
2022-12-27T08:52:34.398Z,5.47
2022-12-27T08:55:21.329Z,10.30
2022-12-27T08:58:16.000Z,9.17
2022-12-27T09:01:05.876Z,6.77
2022-12-27T09:03:53.063Z,7.23
2022-12-27T09:06:40.962Z,7.80
2022-12-27T09:09:27.865Z,11.63
2022-12-27T09:12:14.778Z,8.30
2022-12-27T09:15:02.184Z,12.03
2022-12-27T09:17:49.115Z,6.23
2022-12-27T09:20:37.745Z,7.10
2022-12-27T09:23:24.749Z,7.53
2022-12-27T09:26:14.558Z,10.83
2022-12-27T09:29:01.877Z,5.93
2022-12-27T09:31:48.837Z,5.00
2022-12-27T09:34:35.762Z,9.70
2022-12-27T09:37:22.701Z,9.63
2022-12-27T09:40:14.268Z,10.43
2022-12-27T09:43:22.581Z,7.80
2022-12-27T09:46:19.707Z,8.63
2022-12-27T09:49:20.318Z,8.50
2022-12-27T09:52:11.839Z,9.43
2022-12-27T09:55:19.015Z,7.43
2022-12-27T09:58:22.716Z,8.47
2022-12-27T10:01:49.019Z,7.37
2022-12-27T10:05:09.971Z,7.30
2022-12-27T10:07:57.972Z,8.80
2022-12-27T10:10:54.522Z,10.27
2022-12-27T10:13:57.528Z,11.07
2022-12-27T10:17:28.490Z,9.07
2022-12-27T10:20:33.251Z,8.47
2022-12-27T10:23:24.592Z,7.00
2022-12-27T10:26:17.796Z,7.33
2022-12-27T10:29:22.770Z,10.93
2022-12-27T10:32:14.429Z,5.07
2022-12-27T10:35:04.107Z,12.70
2022-12-27T10:37:53.469Z,9.97
2022-12-27T10:40:51.386Z,12.13
2022-12-27T10:43:43.100Z,8.87
2022-12-27T10:46:33.518Z,6.27
2022-12-27T10:49:21.633Z,5.97
2022-12-27T10:52:31.703Z,4.53
2022-12-27T10:55:37.853Z,6.70
2022-12-27T10:58:40.636Z,6.37
2022-12-27T11:01:29.907Z,7.33
2022-12-27T11:04:21.812Z,8.00
2022-12-27T11:07:18.549Z,10.33
2022-12-27T11:10:19.463Z,7.50
2022-12-27T11:13:17.378Z,7.63
2022-12-27T11:16:04.955Z,7.90
2022-12-27T11:18:55.643Z,6.13
2022-12-27T11:21:42.619Z,6.00
2022-12-27T11:24:30.305Z,6.50
2022-12-27T11:27:27.584Z,4.30
2022-12-27T11:30:23.720Z,5.27
2022-12-27T11:33:26.759Z,5.57
2022-12-27T11:36:22.535Z,7.23
2022-12-27T11:39:47.668Z,6.40
2022-12-27T11:42:40.490Z,6.97
2022-12-27T11:45:46.639Z,5.77
2022-12-27T11:48:39.412Z,8.47
2022-12-27T11:51:57.529Z,6.30
2022-12-27T11:55:15.417Z,9.63
2022-12-27T11:58:18.023Z,7.63
2022-12-27T12:01:52.613Z,8.17
2022-12-27T12:05:01.825Z,8.87
2022-12-27T12:08:14.145Z,9.27
2022-12-27T12:11:07.318Z,6.47
2022-12-27T12:14:19.303Z,11.97
2022-12-27T12:17:36.985Z,11.30
2022-12-27T12:20:47.165Z,8.67
2022-12-27T12:23:58.129Z,11.13
2022-12-27T12:26:55.999Z,7.27
2022-12-27T12:30:25.456Z,7.87
2022-12-27T12:33:26.166Z,8.77
2022-12-27T12:36:34.861Z,7.30
2022-12-27T12:39:30.414Z,7.13
2022-12-27T12:42:40.531Z,9.60
2022-12-27T12:45:48.527Z,7.57
2022-12-27T12:48:47.214Z,12.23
2022-12-27T12:51:43.194Z,9.70
2022-12-27T12:55:15.732Z,14.80
2022-12-27T12:58:31.307Z,7.80
2022-12-27T13:01:39.436Z,10.10
2022-12-27T13:04:56.243Z,8.27
2022-12-27T13:08:04.673Z,10.00
2022-12-27T13:11:09.354Z,9.70
2022-12-27T13:14:02.114Z,11.37
2022-12-27T13:16:53.013Z,12.83
2022-12-27T13:20:03.682Z,15.10
2022-12-27T13:23:05.549Z,10.53
2022-12-27T13:26:07.037Z,7.57
2022-12-27T13:29:14.598Z,14.00
2022-12-27T13:32:32.124Z,8.60
2022-12-27T13:35:38.393Z,4.13
2022-12-27T13:38:56.337Z,8.67
2022-12-27T13:42:19.259Z,6.63
2022-12-27T13:45:25.787Z,8.90
2022-12-27T13:48:49.632Z,9.10
2022-12-27T13:51:51.162Z,8.73
2022-12-27T13:54:46.901Z,8.90
2022-12-27T13:57:54.949Z,7.93
2022-12-27T14:00:54.250Z,10.60
2022-12-27T14:04:02.035Z,11.40
2022-12-27T14:07:07.791Z,13.43
2022-12-27T14:10:08.983Z,9.87
2022-12-27T14:12:56.640Z,6.67
2022-12-27T14:16:00.397Z,8.67
2022-12-27T14:19:08.959Z,5.90
2022-12-27T14:22:35.046Z,7.43
2022-12-27T14:26:02.270Z,9.93
2022-12-27T14:29:28.366Z,4.17
2022-12-27T14:32:36.429Z,8.00
2022-12-27T14:35:42.065Z,7.67
2022-12-27T14:38:44.926Z,8.23
2022-12-27T14:42:03.935Z,8.57
2022-12-27T14:45:33.520Z,13.27
2022-12-27T14:48:42.172Z,6.97
2022-12-27T14:52:00.379Z,14.30
2022-12-27T14:55:20.536Z,12.83
2022-12-27T14:58:19.702Z,12.70
2022-12-27T15:01:32.922Z,14.20
2022-12-27T15:04:34.780Z,10.13
2022-12-27T15:07:55.230Z,8.80
2022-12-27T15:10:45.183Z,10.90
2022-12-27T15:13:53.552Z,12.10
2022-12-27T15:17:00.565Z,12.00
2022-12-27T15:20:15.211Z,10.17
2022-12-27T15:23:08.038Z,13.00
2022-12-27T15:26:02.685Z,8.17
2022-12-27T15:29:12.012Z,11.10
2022-12-27T15:32:15.248Z,14.33
2022-12-27T15:35:02.132Z,8.70
2022-12-27T15:38:15.146Z,7.77
2022-12-27T15:41:08.142Z,15.90
2022-12-27T15:44:00.917Z,7.47
2022-12-27T15:47:20.166Z,8.87
2022-12-27T15:50:15.545Z,7.30
2022-12-27T15:53:25.187Z,13.97
2022-12-27T15:56:24.323Z,7.97
2022-12-27T15:59:47.287Z,12.63
2022-12-27T16:02:41.215Z,15.33
2022-12-27T16:05:42.509Z,16.10
2022-12-27T16:08:42.815Z,7.00
2022-12-27T16:12:04.095Z,8.67
2022-12-27T16:15:11.108Z,13.70
2022-12-27T16:17:58.086Z,9.73
2022-12-27T16:21:11.825Z,12.23
2022-12-27T16:24:05.934Z,15.43
2022-12-27T16:27:00.184Z,15.97
2022-12-27T16:29:47.242Z,14.30
2022-12-27T16:32:34.798Z,9.83
2022-12-27T16:35:22.688Z,10.53
2022-12-27T16:38:22.114Z,10.87
2022-12-27T16:41:17.215Z,11.43
2022-12-27T16:44:23.659Z,11.77
2022-12-27T16:47:29.240Z,17.37
2022-12-27T16:50:40.506Z,13.67
2022-12-27T16:53:48.840Z,13.07
2022-12-27T16:56:37.019Z,12.50
2022-12-27T17:00:00.088Z,14.17
2022-12-27T17:02:47.677Z,11.03
2022-12-27T17:05:36.332Z,19.43
2022-12-27T17:08:25.011Z,30.60
2022-12-27T17:11:41.172Z,37.93
2022-12-27T17:14:36.730Z,20.27
2022-12-27T17:17:24.464Z,28.57
2022-12-27T17:20:18.572Z,47.40
2022-12-27T17:23:05.737Z,31.70
2022-12-27T17:26:11.971Z,33.00
2022-12-27T17:29:01.730Z,46.40
2022-12-27T17:32:14.982Z,50.03
2022-12-27T17:35:30.425Z,36.50
2022-12-27T17:38:33.504Z,44.63
2022-12-27T17:41:59.345Z,57.27
2022-12-27T17:45:01.686Z,62.63
2022-12-27T17:48:03.581Z,80.00
2022-12-27T17:50:54.489Z,103.87
2022-12-27T17:54:05.681Z,20.63
2022-12-27T17:57:19.648Z,16.73
2022-12-27T18:00:20.933Z,14.63
2022-12-27T18:03:09.850Z,15.60
2022-12-27T18:05:57.052Z,13.93
2022-12-27T18:08:48.194Z,17.67
2022-12-27T18:11:35.172Z,19.57
2022-12-27T18:14:22.211Z,15.60
2022-12-27T18:17:28.969Z,19.27
2022-12-27T18:20:28.360Z,16.50
2022-12-27T18:23:17.639Z,21.27
2022-12-27T18:26:13.873Z,19.97
2022-12-27T18:29:00.992Z,15.17
2022-12-27T18:31:49.517Z,19.13
2022-12-27T18:34:51.720Z,12.90
2022-12-27T18:37:40.515Z,16.63
2022-12-27T18:40:28.058Z,17.03
2022-12-27T18:43:15.559Z,14.53
2022-12-27T18:46:03.870Z,14.63
2022-12-27T18:48:51.018Z,17.13
2022-12-27T18:51:39.188Z,30.80
2022-12-27T18:54:29.288Z,78.57
2022-12-27T18:57:33.618Z,52.63
2022-12-27T19:00:26.472Z,34.20
2022-12-27T19:03:16.203Z,20.13
2022-12-27T19:06:07.735Z,16.43
2022-12-27T19:08:54.689Z,23.53
2022-12-27T19:11:49.138Z,14.47
2022-12-27T19:14:46.645Z,22.87
2022-12-27T19:17:38.414Z,16.87
2022-12-27T19:20:29.768Z,19.63
2022-12-27T19:23:37.964Z,21.60
2022-12-27T19:26:30.217Z,19.40
2022-12-27T19:29:21.270Z,22.13
2022-12-27T19:32:09.839Z,19.73
2022-12-27T19:34:59.243Z,18.83
2022-12-27T19:37:46.233Z,19.57
2022-12-27T19:40:33.253Z,20.50
2022-12-27T19:43:20.993Z,22.50
2022-12-27T19:46:11.197Z,21.87
2022-12-27T19:52:09.105Z,19.97
2022-12-27T19:55:04.783Z,21.23
2022-12-27T19:57:51.740Z,24.27
2022-12-27T20:00:38.708Z,22.47
2022-12-27T20:03:25.987Z,25.17
2022-12-27T20:06:20.793Z,25.67
2022-12-27T20:09:19.349Z,17.47
2022-12-27T20:12:07.219Z,17.20
2022-12-27T20:14:54.224Z,22.57
2022-12-27T20:17:44.949Z,22.40
2022-12-27T20:20:32.012Z,22.57
2022-12-27T20:23:21.342Z,20.57
2022-12-27T20:26:08.482Z,24.10
2022-12-27T20:28:55.440Z,21.50
2022-12-27T20:31:46.025Z,25.23
2022-12-27T20:34:33.005Z,20.87
2022-12-27T20:37:24.538Z,23.50
2022-12-27T20:40:12.768Z,28.80
2022-12-27T20:42:59.741Z,22.70
2022-12-27T20:45:47.472Z,25.67
2022-12-27T20:48:37.668Z,20.07
2022-12-27T20:51:33.421Z,23.87
2022-12-27T20:54:20.486Z,19.70
2022-12-27T20:57:08.096Z,21.07
2022-12-27T20:59:55.016Z,23.87
2022-12-27T21:02:42.242Z,21.87
2022-12-27T21:05:29.411Z,21.63
2022-12-27T21:08:16.337Z,25.53
2022-12-27T21:11:10.317Z,19.10
2022-12-27T21:13:57.491Z,17.83
2022-12-27T21:16:45.656Z,17.70
2022-12-27T21:19:32.629Z,21.07
2022-12-27T21:22:19.610Z,21.73
2022-12-27T21:25:06.838Z,24.73
2022-12-27T21:27:53.779Z,25.40
2022-12-27T21:30:40.810Z,24.17
2022-12-27T21:33:28.200Z,19.87
2022-12-27T21:36:18.759Z,28.00
2022-12-27T21:39:06.808Z,22.90
2022-12-27T21:41:53.817Z,27.07
2022-12-27T21:44:40.797Z,23.97
2022-12-27T21:47:29.163Z,25.20
2022-12-27T21:50:16.201Z,27.87
2022-12-27T21:53:03.152Z,27.20
2022-12-27T21:55:57.745Z,26.20
2022-12-27T21:58:46.301Z,25.97
2022-12-27T22:01:50.582Z,29.13
2022-12-27T22:04:39.502Z,28.80
2022-12-27T22:07:26.422Z,49.00
2022-12-27T22:10:13.393Z,40.00
2022-12-27T22:13:00.318Z,32.13
2022-12-27T22:15:57.244Z,34.33
2022-12-27T22:18:45.144Z,32.57
2022-12-27T22:21:34.434Z,27.07
2022-12-27T22:24:21.357Z,35.53
2022-12-27T22:27:08.350Z,32.67
2022-12-27T22:29:55.273Z,27.63
2022-12-27T22:32:42.215Z,32.93
2022-12-27T22:35:30.150Z,30.07
2022-12-27T22:38:17.089Z,30.47
2022-12-27T22:41:05.333Z,34.17
2022-12-27T22:43:55.024Z,28.67
2022-12-27T22:47:25.276Z,28.30
2022-12-27T22:49:50.111Z,33.83
2022-12-27T22:52:37.088Z,31.60
2022-12-27T22:55:24.014Z,28.70
2022-12-27T22:58:11.006Z,35.00
2022-12-27T23:00:58.713Z,32.77
2022-12-27T23:03:46.631Z,29.93
2022-12-27T23:06:35.555Z,29.37
2022-12-27T23:09:22.525Z,28.97
2022-12-27T23:12:09.447Z,29.70
2022-12-27T23:14:56.408Z,25.90
2022-12-27T23:17:43.414Z,28.27
2022-12-27T23:20:34.075Z,29.30
2022-12-27T23:23:21.816Z,25.80
2022-12-27T23:26:14.382Z,25.93
2022-12-27T23:29:01.322Z,26.87
2022-12-27T23:31:55.534Z,30.83
2022-12-27T23:34:43.085Z,28.10
2022-12-27T23:37:30.048Z,21.50
2022-12-27T23:40:16.999Z,26.60
2022-12-27T23:43:33.279Z,26.87
2022-12-27T23:46:20.500Z,26.23
2022-12-27T23:49:08.213Z,25.33
2022-12-27T23:51:55.238Z,24.60
2022-12-27T23:54:42.166Z,23.03
2022-12-27T23:57:29.100Z,23.87
